Vremea acum in Abrud - Romania

Vrei sa afli care e starea vremii acum in Alba - Romania? Dorim sa iti furnizam starea vremii pentru Alba - Romania. Starea vremii Alba - Romania pentru astazi.

Vremea acum in Abrud

Temperatura: 6.8 °C

Este: Senin
Se simte ca: 6.5 °C
Innorat: 5 %
Precipitatii: 0 %
Presiune atmosferica: 1018 hPa
Umiditate: 80%
Vizibilitate: 10 km
Vantul bate din NNE cu 4 km/h

Evolutia vremii in Abrud pe ore

Ora: 04:00
Senin
Temperatura: 6.4°C
Sansa de precipitatii: 0%
Ora Descriere Temp Se simte Precipitatii Umiditate Vant
00:00Senin7.2°6.6°0%80%NNE 4.7 KM/H
01:00Senin6.9°6.5°0%80%NNE 4.3 KM/H
02:00Senin6.8°6.5°0%80%NNE 4 KM/H
03:00Senin6.6°6.3°0%81%NNE 4 KM/H
04:00Senin6.4°6.1°0%81%NNE 4 KM/H
05:00Senin6.2°5.9°0%81%NNE 4 KM/H
06:00Senin6.1°5.5°0%81%NNE 4.7 KM/H
07:00Senin7.1°6.7°0%76%NNE 4.3 KM/H
08:00Senin12.4°12.4°0%63%NE 2.5 KM/H
09:00Senin16.2°16.2°0%52%SE 2.9 KM/H
10:00Senin18.2°18.2°0%45%SSE 4.7 KM/H
11:00Senin19.5°19.5°0%39%S 6.5 KM/H
12:00Senin20.5°20.5°0%34%S 7.9 KM/H
13:00Senin21.2°21.2°0%31%S 8.6 KM/H
14:00Senin21.8°21.8°0%29%SSW 9.4 KM/H
15:00Senin22.1°23°0%27%SSW 9.4 KM/H
16:00Patchy rain nearby22.1°22.9°75%26%SW 8.3 KM/H
17:00Senin21.6°21.6°0%27%WSW 7.9 KM/H
18:00Patchy rain nearby20.7°20.7°100%32%WSW 8.3 KM/H
19:00Senin18.8°18.8°0%45%W 6.1 KM/H
20:00Senin12.8°13.4°0%60%WNW 3.2 KM/H
21:00Senin9.9°10°0%66%NNW 2.9 KM/H
22:00Patchy rain nearby9.3°9.2°76%68%N 4.3 KM/H
23:00Senin8.9°8.8°0%68%N 4.3 KM/H




tutorials